sensor_id;sensor_type;location;lat;lon;timestamp;pressure;altitude;pressure_sealevel;temperature;humidity
78409;BME280;67697;50.750;-3.270;2023-08-06T00:01:50;101000.43;;;14.45;57.13
78409;BME280;67697;50.750;-3.270;2023-08-06T00:04:16;101001.32;;;14.80;56.09
78409;BME280;67697;50.750;-3.270;2023-08-06T00:06:41;100995.19;;;15.23;55.10
78409;BME280;67697;50.750;-3.270;2023-08-06T00:09:11;100992.61;;;14.80;57.24
78409;BME280;67697;50.750;-3.270;2023-08-06T00:11:32;100994.54;;;14.34;58.57
78409;BME280;67697;50.750;-3.270;2023-08-06T00:13:57;100997.00;;;15.35;56.05
78409;BME280;67697;50.750;-3.270;2023-08-06T00:16:23;100998.00;;;13.66;60.74
78409;BME280;67697;50.750;-3.270;2023-08-06T00:18:49;100991.89;;;14.80;57.91
78409;BME280;67697;50.750;-3.270;2023-08-06T00:21:14;100995.59;;;15.11;57.18
78409;BME280;67697;50.750;-3.270;2023-08-06T00:23:41;100995.04;;;14.26;59.68
78409;BME280;67697;50.750;-3.270;2023-08-06T00:26:06;100999.87;;;13.32;64.05
78409;BME280;67697;50.750;-3.270;2023-08-06T00:28:31;101003.53;;;13.16;64.05
78409;BME280;67697;50.750;-3.270;2023-08-06T00:30:57;101004.88;;;13.68;63.47
78409;BME280;67697;50.750;-3.270;2023-08-06T00:33:23;101008.90;;;13.62;63.63
78409;BME280;67697;50.750;-3.270;2023-08-06T00:35:48;101013.34;;;13.40;62.80
78409;BME280;67697;50.750;-3.270;2023-08-06T00:38:13;101013.93;;;14.01;61.84
78409;BME280;67697;50.750;-3.270;2023-08-06T00:40:39;101013.75;;;14.32;62.02
78409;BME280;67697;50.750;-3.270;2023-08-06T00:43:05;101013.53;;;15.06;59.09
78409;BME280;67697;50.750;-3.270;2023-08-06T00:45:34;101015.97;;;15.12;58.95
78409;BME280;67697;50.750;-3.270;2023-08-06T00:47:56;101023.02;;;16.04;55.76
78409;BME280;67697;50.750;-3.270;2023-08-06T00:50:22;101028.26;;;16.09;54.08
78409;BME280;67697;50.750;-3.270;2023-08-06T00:52:47;101028.72;;;14.76;57.87
78409;BME280;67697;50.750;-3.270;2023-08-06T00:55:12;101033.48;;;15.09;56.94
78409;BME280;67697;50.750;-3.270;2023-08-06T00:57:38;101033.81;;;16.69;53.38
78409;BME280;67697;50.750;-3.270;2023-08-06T01:00:05;101030.93;;;16.80;51.88
78409;BME280;67697;50.750;-3.270;2023-08-06T01:02:29;101036.03;;;16.37;52.31
78409;BME280;67697;50.750;-3.270;2023-08-06T01:04:55;101038.88;;;16.27;51.95
78409;BME280;67697;50.750;-3.270;2023-08-06T01:07:30;101036.34;;;16.04;52.70
78409;BME280;67697;50.750;-3.270;2023-08-06T01:09:52;101039.03;;;16.51;51.80
78409;BME280;67697;50.750;-3.270;2023-08-06T01:12:21;101040.26;;;16.61;51.44
78409;BME280;67697;50.750;-3.270;2023-08-06T01:14:45;101044.66;;;14.81;55.13
78409;BME280;67697;50.750;-3.270;2023-08-06T01:17:04;101045.41;;;16.59;51.80
78409;BME280;67697;50.750;-3.270;2023-08-06T01:19:28;101046.16;;;16.31;51.98
78409;BME280;67697;50.750;-3.270;2023-08-06T01:21:54;101048.44;;;17.00;51.51
78409;BME280;67697;50.750;-3.270;2023-08-06T01:24:20;101045.88;;;16.72;52.68
78409;BME280;67697;50.750;-3.270;2023-08-06T01:26:54;101044.93;;;16.85;52.43
78409;BME280;67697;50.750;-3.270;2023-08-06T01:29:17;101054.32;;;15.46;55.46
78409;BME280;67697;50.750;-3.270;2023-08-06T01:31:39;101054.88;;;14.86;57.25
78409;BME280;67697;50.750;-3.270;2023-08-06T01:34:09;101061.13;;;16.32;53.98
78409;BME280;67697;50.750;-3.270;2023-08-06T01:36:28;101062.06;;;16.43;53.42
78409;BME280;67697;50.750;-3.270;2023-08-06T01:38:53;101064.02;;;15.59;54.79
78409;BME280;67697;50.750;-3.270;2023-08-06T01:41:19;101061.69;;;16.20;52.65
78409;BME280;67697;50.750;-3.270;2023-08-06T01:43:44;101063.31;;;16.64;52.40
78409;BME280;67697;50.750;-3.270;2023-08-06T01:46:11;101060.02;;;16.19;53.69
78409;BME280;67697;50.750;-3.270;2023-08-06T01:48:35;101061.30;;;15.56;55.25
78409;BME280;67697;50.750;-3.270;2023-08-06T01:51:03;101064.44;;;15.18;56.17
78409;BME280;67697;50.750;-3.270;2023-08-06T01:53:27;101063.18;;;16.53;53.79
78409;BME280;67697;50.750;-3.270;2023-08-06T01:55:52;101061.11;;;15.63;54.07
78409;BME280;67697;50.750;-3.270;2023-08-06T01:58:18;101065.24;;;15.48;55.07
78409;BME280;67697;50.750;-3.270;2023-08-06T02:00:44;101065.27;;;14.78;55.94
78409;BME280;67697;50.750;-3.270;2023-08-06T02:03:09;101068.71;;;15.05;57.55
78409;BME280;67697;50.750;-3.270;2023-08-06T02:05:35;101072.86;;;14.67;57.84
78409;BME280;67697;50.750;-3.270;2023-08-06T02:08:00;101078.93;;;15.19;56.41
78409;BME280;67697;50.750;-3.270;2023-08-06T02:10:26;101085.36;;;13.84;58.22
78409;BME280;67697;50.750;-3.270;2023-08-06T02:12:52;101088.90;;;15.57;55.33
78409;BME280;67697;50.750;-3.270;2023-08-06T02:15:17;101093.02;;;15.53;54.41
78409;BME280;67697;50.750;-3.270;2023-08-06T02:17:43;101098.60;;;15.88;53.84
78409;BME280;67697;50.750;-3.270;2023-08-06T02:20:09;101099.27;;;16.75;51.76
78409;BME280;67697;50.750;-3.270;2023-08-06T02:22:34;101099.78;;;15.75;54.39
78409;BME280;67697;50.750;-3.270;2023-08-06T02:24:59;101096.73;;;16.96;51.73
78409;BME280;67697;50.750;-3.270;2023-08-06T02:27:25;101087.93;;;17.36;50.32
78409;BME280;67697;50.750;-3.270;2023-08-06T02:29:51;101087.92;;;15.51;56.53
78409;BME280;67697;50.750;-3.270;2023-08-06T02:32:16;101088.04;;;16.13;54.98
78409;BME280;67697;50.750;-3.270;2023-08-06T02:34:42;101089.55;;;15.80;53.78
78409;BME280;67697;50.750;-3.270;2023-08-06T02:37:08;101088.58;;;15.49;54.97
78409;BME280;67697;50.750;-3.270;2023-08-06T02:39:33;101088.80;;;15.67;54.91
78409;BME280;67697;50.750;-3.270;2023-08-06T02:41:59;101089.71;;;15.21;55.33
78409;BME280;67697;50.750;-3.270;2023-08-06T02:44:27;101094.16;;;15.19;56.00
78409;BME280;67697;50.750;-3.270;2023-08-06T02:46:50;101093.37;;;15.45;54.58
78409;BME280;67697;50.750;-3.270;2023-08-06T02:49:16;101093.74;;;16.05;53.09
78409;BME280;67697;50.750;-3.270;2023-08-06T02:51:41;101099.76;;;14.81;54.50
78409;BME280;67697;50.750;-3.270;2023-08-06T02:54:07;101104.59;;;14.90;55.88
78409;BME280;67697;50.750;-3.270;2023-08-06T02:56:33;101109.78;;;16.32;52.34
78409;BME280;67697;50.750;-3.270;2023-08-06T02:58:58;101112.58;;;16.15;51.83
78409;BME280;67697;50.750;-3.270;2023-08-06T03:01:24;101108.24;;;16.05;51.98
78409;BME280;67697;50.750;-3.270;2023-08-06T03:03:54;101099.12;;;15.96;52.68
78409;BME280;67697;50.750;-3.270;2023-08-06T03:06:15;101102.58;;;16.29;52.46
78409;BME280;67697;50.750;-3.270;2023-08-06T03:08:41;101100.08;;;16.27;52.37
78409;BME280;67697;50.750;-3.270;2023-08-06T03:11:06;101096.89;;;15.74;53.34
78409;BME280;67697;50.750;-3.270;2023-08-06T03:13:32;101094.53;;;15.57;54.85
78409;BME280;67697;50.750;-3.270;2023-08-06T03:15:58;101092.05;;;14.51;58.86
78409;BME280;67697;50.750;-3.270;2023-08-06T03:18:23;101097.70;;;13.86;58.79
78409;BME280;67697;50.750;-3.270;2023-08-06T03:20:49;101100.95;;;14.95;56.91
78409;BME280;67697;50.750;-3.270;2023-08-06T03:23:14;101100.90;;;15.05;56.65
78409;BME280;67697;50.750;-3.270;2023-08-06T03:25:40;101098.20;;;15.05;55.73
78409;BME280;67697;50.750;-3.270;2023-08-06T03:28:07;101102.81;;;16.59;52.14
78409;BME280;67697;50.750;-3.270;2023-08-06T03:30:31;101103.21;;;17.15;49.95
78409;BME280;67697;50.750;-3.270;2023-08-06T03:32:57;101104.09;;;16.43;51.09
78409;BME280;67697;50.750;-3.270;2023-08-06T03:35:22;101104.95;;;15.86;52.73
78409;BME280;67697;50.750;-3.270;2023-08-06T03:37:48;101102.64;;;15.58;53.82
78409;BME280;67697;50.750;-3.270;2023-08-06T03:40:14;101101.73;;;15.27;55.28
78409;BME280;67697;50.750;-3.270;2023-08-06T03:42:39;101104.06;;;15.61;55.14
78409;BME280;67697;50.750;-3.270;2023-08-06T03:45:06;101106.11;;;15.38;54.99
78409;BME280;67697;50.750;-3.270;2023-08-06T03:47:31;101114.24;;;12.99;59.75
78409;BME280;67697;50.750;-3.270;2023-08-06T03:49:56;101108.70;;;15.80;53.22
78409;BME280;67697;50.750;-3.270;2023-08-06T03:52:22;101104.67;;;16.47;51.59
78409;BME280;67697;50.750;-3.270;2023-08-06T03:54:47;101101.10;;;15.42;53.23
78409;BME280;67697;50.750;-3.270;2023-08-06T03:57:13;101105.91;;;15.46;54.40
78409;BME280;67697;50.750;-3.270;2023-08-06T03:59:38;101107.77;;;15.40;54.34
78409;BME280;67697;50.750;-3.270;2023-08-06T04:02:04;101101.89;;;15.20;55.05
78409;BME280;67697;50.750;-3.270;2023-08-06T04:04:31;101102.70;;;12.57;61.32
78409;BME280;67697;50.750;-3.270;2023-08-06T04:06:55;101100.77;;;13.68;59.27
78409;BME280;67697;50.750;-3.270;2023-08-06T04:09:21;101097.55;;;15.22;55.39
78409;BME280;67697;50.750;-3.270;2023-08-06T04:11:47;101099.06;;;15.67;53.99
78409;BME280;67697;50.750;-3.270;2023-08-06T04:14:12;101095.09;;;15.98;53.55
78409;BME280;67697;50.750;-3.270;2023-08-06T04:16:38;101099.13;;;15.94;52.93
78409;BME280;67697;50.750;-3.270;2023-08-06T04:19:04;101105.76;;;16.26;51.72
78409;BME280;67697;50.750;-3.270;2023-08-06T04:21:29;101109.21;;;15.67;52.67
78409;BME280;67697;50.750;-3.270;2023-08-06T04:23:56;101116.66;;;16.66;50.31
78409;BME280;67697;50.750;-3.270;2023-08-06T04:26:21;101121.24;;;16.73;50.37
78409;BME280;67697;50.750;-3.270;2023-08-06T04:28:47;101127.42;;;16.66;50.65
78409;BME280;67697;50.750;-3.270;2023-08-06T04:31:12;101126.98;;;16.44;50.96
78409;BME280;67697;50.750;-3.270;2023-08-06T04:33:37;101131.04;;;16.78;49.72
78409;BME280;67697;50.750;-3.270;2023-08-06T04:36:03;101129.67;;;16.55;50.31
78409;BME280;67697;50.750;-3.270;2023-08-06T04:38:28;101130.15;;;15.99;51.21
78409;BME280;67697;50.750;-3.270;2023-08-06T04:40:54;101131.87;;;15.89;51.53
78409;BME280;67697;50.750;-3.270;2023-08-06T04:43:20;101139.21;;;14.31;54.24
78409;BME280;67697;50.750;-3.270;2023-08-06T04:45:46;101141.59;;;14.15;55.91
78409;BME280;67697;50.750;-3.270;2023-08-06T04:48:12;101141.58;;;14.32;56.17
78409;BME280;67697;50.750;-3.270;2023-08-06T04:50:37;101137.35;;;14.95;54.65
78409;BME280;67697;50.750;-3.270;2023-08-06T04:53:02;101141.44;;;15.35;54.29
78409;BME280;67697;50.750;-3.270;2023-08-06T04:55:28;101140.89;;;15.87;52.82
78409;BME280;67697;50.750;-3.270;2023-08-06T04:57:54;101142.82;;;15.38;53.22
78409;BME280;67697;50.750;-3.270;2023-08-06T05:00:19;101143.42;;;15.48;53.88
78409;BME280;67697;50.750;-3.270;2023-08-06T05:02:44;101142.21;;;15.86;53.22
78409;BME280;67697;50.750;-3.270;2023-08-06T05:05:10;101143.16;;;15.56;53.48
78409;BME280;67697;50.750;-3.270;2023-08-06T05:07:36;101150.28;;;15.91;51.57
78409;BME280;67697;50.750;-3.270;2023-08-06T05:10:02;101153.69;;;16.33;50.89
78409;BME280;67697;50.750;-3.270;2023-08-06T05:12:27;101159.29;;;16.80;50.10
78409;BME280;67697;50.750;-3.270;2023-08-06T05:14:53;101162.51;;;15.36;52.06
78409;BME280;67697;50.750;-3.270;2023-08-06T05:17:18;101161.73;;;16.52;49.66
78409;BME280;67697;50.750;-3.270;2023-08-06T05:19:44;101162.69;;;16.25;50.48
78409;BME280;67697;50.750;-3.270;2023-08-06T05:22:10;101165.38;;;15.48;52.41
78409;BME280;67697;50.750;-3.270;2023-08-06T05:24:35;101168.28;;;15.25;53.99
78409;BME280;67697;50.750;-3.270;2023-08-06T05:27:02;101169.25;;;15.28;54.05
78409;BME280;67697;50.750;-3.270;2023-08-06T05:29:27;101169.98;;;15.67;52.85
78409;BME280;67697;50.750;-3.270;2023-08-06T05:31:52;101177.44;;;15.40;53.58
78409;BME280;67697;50.750;-3.270;2023-08-06T05:34:18;101178.39;;;16.33;52.37
78409;BME280;67697;50.750;-3.270;2023-08-06T05:36:43;101176.55;;;16.65;51.60
78409;BME280;67697;50.750;-3.270;2023-08-06T05:39:09;101179.89;;;16.46;52.06
78409;BME280;67697;50.750;-3.270;2023-08-06T05:41:36;101189.48;;;16.30;51.86
78409;BME280;67697;50.750;-3.270;2023-08-06T05:44:01;101187.98;;;16.64;51.99
78409;BME280;67697;50.750;-3.270;2023-08-06T05:46:26;101191.64;;;17.01;51.70
78409;BME280;67697;50.750;-3.270;2023-08-06T05:48:52;101190.40;;;17.54;50.41
78409;BME280;67697;50.750;-3.270;2023-08-06T05:51:17;101192.03;;;17.48;50.61
78409;BME280;67697;50.750;-3.270;2023-08-06T05:53:43;101191.31;;;16.62;51.29
78409;BME280;67697;50.750;-3.270;2023-08-06T05:56:08;101191.86;;;17.17;50.79
78409;BME280;67697;50.750;-3.270;2023-08-06T05:58:34;101189.39;;;17.46;49.78
78409;BME280;67697;50.750;-3.270;2023-08-06T06:01:00;101187.43;;;17.88;49.54
78409;BME280;67697;50.750;-3.270;2023-08-06T06:03:26;101190.36;;;17.94;50.10
78409;BME280;67697;50.750;-3.270;2023-08-06T06:05:51;101195.07;;;17.42;51.20
78409;BME280;67697;50.750;-3.270;2023-08-06T06:08:17;101205.64;;;17.18;52.10
78409;BME280;67697;50.750;-3.270;2023-08-06T06:10:42;101207.09;;;17.94;50.91
78409;BME280;67697;50.750;-3.270;2023-08-06T06:13:08;101206.48;;;18.51;49.52
78409;BME280;67697;50.750;-3.270;2023-08-06T06:15:33;101214.49;;;17.69;51.67
78409;BME280;67697;50.750;-3.270;2023-08-06T06:17:59;101215.57;;;17.17;52.39
78409;BME280;67697;50.750;-3.270;2023-08-06T06:20:25;101215.77;;;16.77;53.28
78409;BME280;67697;50.750;-3.270;2023-08-06T06:22:51;101215.98;;;15.99;55.90
78409;BME280;67697;50.750;-3.270;2023-08-06T06:25:18;101218.93;;;13.41;63.82
78409;BME280;67697;50.750;-3.270;2023-08-06T06:27:41;101219.90;;;15.06;59.69
78409;BME280;67697;50.750;-3.270;2023-08-06T06:30:08;101221.95;;;15.68;58.15
78409;BME280;67697;50.750;-3.270;2023-08-06T06:32:32;101222.24;;;16.35;57.15
78409;BME280;67697;50.750;-3.270;2023-08-06T06:35:04;101224.37;;;14.64;60.21
78409;BME280;67697;50.750;-3.270;2023-08-06T06:37:24;101230.19;;;15.08;60.02
78409;BME280;67697;50.750;-3.270;2023-08-06T06:39:49;101238.83;;;13.11;66.71
78409;BME280;67697;50.750;-3.270;2023-08-06T06:42:15;101236.94;;;14.85;62.48
78409;BME280;67697;50.750;-3.270;2023-08-06T06:44:41;101234.93;;;14.65;62.96
78409;BME280;67697;50.750;-3.270;2023-08-06T06:47:06;101235.45;;;15.34;61.92
78409;BME280;67697;50.750;-3.270;2023-08-06T06:49:32;101235.74;;;14.17;63.99
78409;BME280;67697;50.750;-3.270;2023-08-06T06:51:58;101241.18;;;13.42;67.48
78409;BME280;67697;50.750;-3.270;2023-08-06T06:54:23;101238.40;;;13.51;67.99
78409;BME280;67697;50.750;-3.270;2023-08-06T06:56:49;101243.41;;;14.26;66.49
78409;BME280;67697;50.750;-3.270;2023-08-06T06:59:14;101240.84;;;15.79;61.66
78409;BME280;67697;50.750;-3.270;2023-08-06T07:01:40;101249.88;;;14.88;62.41
78409;BME280;67697;50.750;-3.270;2023-08-06T07:04:06;101250.62;;;16.54;59.57
78409;BME280;67697;50.750;-3.270;2023-08-06T07:06:31;101248.94;;;16.41;59.34
78409;BME280;67697;50.750;-3.270;2023-08-06T07:08:57;101251.24;;;16.08;60.26
78409;BME280;67697;50.750;-3.270;2023-08-06T07:11:22;101249.20;;;14.80;64.57
78409;BME280;67697;50.750;-3.270;2023-08-06T07:13:50;101248.43;;;15.15;63.62
78409;BME280;67697;50.750;-3.270;2023-08-06T07:16:14;101250.41;;;14.17;64.55
78409;BME280;67697;50.750;-3.270;2023-08-06T07:18:39;101247.30;;;15.77;63.10
78409;BME280;67697;50.750;-3.270;2023-08-06T07:21:05;101247.52;;;15.18;65.39
78409;BME280;67697;50.750;-3.270;2023-08-06T07:23:30;101240.77;;;14.19;67.45
78409;BME280;67697;50.750;-3.270;2023-08-06T07:25:56;101240.90;;;15.48;64.34
78409;BME280;67697;50.750;-3.270;2023-08-06T07:28:22;101240.24;;;15.20;64.16
78409;BME280;67697;50.750;-3.270;2023-08-06T07:30:47;101236.90;;;15.41;64.07
78409;BME280;67697;50.750;-3.270;2023-08-06T07:33:13;101241.78;;;15.08;64.03
78409;BME280;67697;50.750;-3.270;2023-08-06T07:35:39;101239.27;;;15.60;63.69
78409;BME280;67697;50.750;-3.270;2023-08-06T07:38:04;101244.88;;;15.24;65.42
78409;BME280;67697;50.750;-3.270;2023-08-06T07:40:30;101243.58;;;16.01;64.76
78409;BME280;67697;50.750;-3.270;2023-08-06T07:42:55;101241.81;;;16.14;63.44
78409;BME280;67697;50.750;-3.270;2023-08-06T07:45:21;101243.47;;;16.04;64.26
78409;BME280;67697;50.750;-3.270;2023-08-06T07:47:51;101245.02;;;14.62;67.61
78409;BME280;67697;50.750;-3.270;2023-08-06T07:50:13;101249.52;;;14.11;70.60
78409;BME280;67697;50.750;-3.270;2023-08-06T07:52:38;101246.88;;;14.54;69.51
78409;BME280;67697;50.750;-3.270;2023-08-06T07:55:04;101245.47;;;15.39;68.04
78409;BME280;67697;50.750;-3.270;2023-08-06T07:57:29;101242.44;;;15.22;66.13
78409;BME280;67697;50.750;-3.270;2023-08-06T07:59:55;101246.57;;;15.24;66.05
78409;BME280;67697;50.750;-3.270;2023-08-06T08:02:20;101244.78;;;14.39;66.83
78409;BME280;67697;50.750;-3.270;2023-08-06T08:04:45;101247.10;;;14.85;64.88
78409;BME280;67697;50.750;-3.270;2023-08-06T08:07:12;101244.97;;;16.23;61.18
78409;BME280;67697;50.750;-3.270;2023-08-06T08:09:37;101244.25;;;15.28;62.37
78409;BME280;67697;50.750;-3.270;2023-08-06T08:12:03;101240.59;;;15.79;62.97
78409;BME280;67697;50.750;-3.270;2023-08-06T08:14:28;101244.13;;;15.60;63.08
78409;BME280;67697;50.750;-3.270;2023-08-06T08:16:53;101241.00;;;15.16;63.11
78409;BME280;67697;50.750;-3.270;2023-08-06T08:19:19;101244.65;;;15.14;63.52
78409;BME280;67697;50.750;-3.270;2023-08-06T08:21:44;101240.87;;;14.29;63.78
78409;BME280;67697;50.750;-3.270;2023-08-06T08:24:10;101243.04;;;14.26;63.72
78409;BME280;67697;50.750;-3.270;2023-08-06T08:26:36;101245.92;;;15.45;61.48
78409;BME280;67697;50.750;-3.270;2023-08-06T08:29:01;101242.36;;;14.52;62.92
78409;BME280;67697;50.750;-3.270;2023-08-06T08:31:27;101239.38;;;14.73;63.00
78409;BME280;67697;50.750;-3.270;2023-08-06T08:33:52;101238.07;;;15.41;62.20
78409;BME280;67697;50.750;-3.270;2023-08-06T08:36:18;101240.16;;;15.75;62.30
78409;BME280;67697;50.750;-3.270;2023-08-06T08:38:43;101244.81;;;14.80;60.69
78409;BME280;67697;50.750;-3.270;2023-08-06T08:41:10;101249.37;;;15.07;60.64
78409;BME280;67697;50.750;-3.270;2023-08-06T08:43:35;101253.29;;;14.59;60.75
78409;BME280;67697;50.750;-3.270;2023-08-06T08:46:01;101250.23;;;14.97;59.35
78409;BME280;67697;50.750;-3.270;2023-08-06T08:48:27;101252.84;;;16.42;57.08
78409;BME280;67697;50.750;-3.270;2023-08-06T08:50:52;101256.90;;;15.52;57.42
78409;BME280;67697;50.750;-3.270;2023-08-06T08:53:18;101251.40;;;16.00;57.11
78409;BME280;67697;50.750;-3.270;2023-08-06T08:55:43;101254.45;;;15.62;57.63
78409;BME280;67697;50.750;-3.270;2023-08-06T08:58:08;101254.52;;;15.22;60.10
78409;BME280;67697;50.750;-3.270;2023-08-06T09:00:34;101262.70;;;15.86;58.83
78409;BME280;67697;50.750;-3.270;2023-08-06T09:02:59;101252.73;;;15.36;59.92
78409;BME280;67697;50.750;-3.270;2023-08-06T09:05:26;101253.94;;;15.36;58.09
78409;BME280;67697;50.750;-3.270;2023-08-06T09:07:53;101256.57;;;15.25;57.61
78409;BME280;67697;50.750;-3.270;2023-08-06T09:10:17;101260.94;;;15.69;57.69
78409;BME280;67697;50.750;-3.270;2023-08-06T09:12:41;101257.31;;;15.65;56.33
78409;BME280;67697;50.750;-3.270;2023-08-06T09:15:08;101260.74;;;15.20;56.28
78409;BME280;67697;50.750;-3.270;2023-08-06T09:17:32;101257.66;;;15.35;56.15
78409;BME280;67697;50.750;-3.270;2023-08-06T09:19:58;101263.41;;;15.22;57.66
78409;BME280;67697;50.750;-3.270;2023-08-06T09:22:23;101265.99;;;14.83;58.10
78409;BME280;67697;50.750;-3.270;2023-08-06T09:24:49;101266.85;;;15.27;57.56
78409;BME280;67697;50.750;-3.270;2023-08-06T09:27:15;101258.36;;;15.48;56.68
78409;BME280;67697;50.750;-3.270;2023-08-06T09:29:41;101257.67;;;15.92;54.51
78409;BME280;67697;50.750;-3.270;2023-08-06T09:32:06;101263.62;;;16.51;53.52
78409;BME280;67697;50.750;-3.270;2023-08-06T09:34:31;101256.74;;;16.50;52.82
78409;BME280;67697;50.750;-3.270;2023-08-06T09:36:57;101265.25;;;15.64;53.81
78409;BME280;67697;50.750;-3.270;2023-08-06T09:39:27;101270.41;;;15.97;54.56
78409;BME280;67697;50.750;-3.270;2023-08-06T09:41:55;101282.64;;;14.99;56.28
78409;BME280;67697;50.750;-3.270;2023-08-06T09:44:16;101267.30;;;16.58;52.75
78409;BME280;67697;50.750;-3.270;2023-08-06T09:46:39;101272.45;;;16.00;54.25
78409;BME280;67697;50.750;-3.270;2023-08-06T09:49:04;101278.87;;;16.30;52.76
78409;BME280;67697;50.750;-3.270;2023-08-06T09:51:30;101267.55;;;15.91;54.73
78409;BME280;67697;50.750;-3.270;2023-08-06T09:53:56;101265.69;;;16.37;52.79
78409;BME280;67697;50.750;-3.270;2023-08-06T09:56:21;101255.40;;;15.51;53.92
78409;BME280;67697;50.750;-3.270;2023-08-06T09:58:49;101260.79;;;16.28;51.46
78409;BME280;67697;50.750;-3.270;2023-08-06T10:01:13;101259.74;;;16.89;51.79
78409;BME280;67697;50.750;-3.270;2023-08-06T10:03:38;101262.32;;;17.08;53.54
78409;BME280;67697;50.750;-3.270;2023-08-06T10:06:05;101260.00;;;17.32;50.64
78409;BME280;67697;50.750;-3.270;2023-08-06T10:08:29;101273.03;;;16.77;49.74
78409;BME280;67697;50.750;-3.270;2023-08-06T10:10:54;101273.62;;;16.66;50.95
78409;BME280;67697;50.750;-3.270;2023-08-06T10:13:21;101279.36;;;17.66;48.82
78409;BME280;67697;50.750;-3.270;2023-08-06T10:15:45;101277.87;;;16.88;50.13
78409;BME280;67697;50.750;-3.270;2023-08-06T10:18:12;101273.88;;;16.40;49.90
78409;BME280;67697;50.750;-3.270;2023-08-06T10:20:36;101283.66;;;15.89;49.72
78409;BME280;67697;50.750;-3.270;2023-08-06T10:23:03;101279.84;;;16.46;49.69
78409;BME280;67697;50.750;-3.270;2023-08-06T10:25:31;101276.86;;;16.76;49.69
78409;BME280;67697;50.750;-3.270;2023-08-06T10:27:54;101280.76;;;16.69;51.80
78409;BME280;67697;50.750;-3.270;2023-08-06T10:30:24;101279.79;;;17.68;47.74
78409;BME280;67697;50.750;-3.270;2023-08-06T10:32:48;101286.60;;;17.83;48.43
78409;BME280;67697;50.750;-3.270;2023-08-06T10:37:36;101295.21;;;16.56;49.70
78409;BME280;67697;50.750;-3.270;2023-08-06T10:40:02;101292.66;;;16.73;48.73
78409;BME280;67697;50.750;-3.270;2023-08-06T10:42:28;101293.26;;;16.86;49.91
78409;BME280;67697;50.750;-3.270;2023-08-06T10:47:26;101297.90;;;17.00;48.20
78409;BME280;67697;50.750;-3.270;2023-08-06T10:49:43;101301.40;;;17.55;48.72
78409;BME280;67697;50.750;-3.270;2023-08-06T10:52:08;101300.56;;;17.85;48.37
78409;BME280;67697;50.750;-3.270;2023-08-06T10:54:34;101299.17;;;16.74;48.90
78409;BME280;67697;50.750;-3.270;2023-08-06T10:56:59;101300.35;;;17.05;48.66
78409;BME280;67697;50.750;-3.270;2023-08-06T10:59:25;101301.84;;;17.67;47.31
78409;BME280;67697;50.750;-3.270;2023-08-06T11:01:50;101301.69;;;17.91;48.00
78409;BME280;67697;50.750;-3.270;2023-08-06T11:04:16;101306.35;;;17.06;49.43
78409;BME280;67697;50.750;-3.270;2023-08-06T11:06:42;101304.11;;;17.77;47.73
78409;BME280;67697;50.750;-3.270;2023-08-06T11:09:07;101303.37;;;17.81;45.52
78409;BME280;67697;50.750;-3.270;2023-08-06T11:11:32;101299.43;;;17.11;48.27
78409;BME280;67697;50.750;-3.270;2023-08-06T11:13:58;101300.53;;;18.02;46.30
78409;BME280;67697;50.750;-3.270;2023-08-06T11:16:24;101307.04;;;17.69;46.15
78409;BME280;67697;50.750;-3.270;2023-08-06T11:18:49;101307.86;;;16.89;48.01
78409;BME280;67697;50.750;-3.270;2023-08-06T11:21:19;101306.77;;;17.26;47.32
78409;BME280;67697;50.750;-3.270;2023-08-06T11:23:41;101314.51;;;17.52;46.77
78409;BME280;67697;50.750;-3.270;2023-08-06T11:26:07;101313.11;;;18.41;45.67
78409;BME280;67697;50.750;-3.270;2023-08-06T11:28:31;101312.75;;;16.59;47.37
78409;BME280;67697;50.750;-3.270;2023-08-06T11:30:57;101314.56;;;17.21;47.46
78409;BME280;67697;50.750;-3.270;2023-08-06T11:33:22;101309.55;;;17.60;47.76
78409;BME280;67697;50.750;-3.270;2023-08-06T11:35:48;101307.53;;;17.12;48.94
78409;BME280;67697;50.750;-3.270;2023-08-06T11:38:13;101303.87;;;18.35;47.40
78409;BME280;67697;50.750;-3.270;2023-08-06T11:40:40;101308.36;;;18.30;47.65
78409;BME280;67697;50.750;-3.270;2023-08-06T11:43:06;101308.31;;;19.03;45.40
78409;BME280;67697;50.750;-3.270;2023-08-06T11:45:30;101298.13;;;18.63;45.39
78409;BME280;67697;50.750;-3.270;2023-08-06T11:47:57;101306.19;;;18.30;47.15
78409;BME280;67697;50.750;-3.270;2023-08-06T11:50:23;101310.57;;;18.04;46.40
78409;BME280;67697;50.750;-3.270;2023-08-06T11:52:46;101296.98;;;19.51;45.56
78409;BME280;67697;50.750;-3.270;2023-08-06T11:55:12;101303.71;;;17.94;45.70
78409;BME280;67697;50.750;-3.270;2023-08-06T11:57:39;101306.10;;;18.53;43.32
78409;BME280;67697;50.750;-3.270;2023-08-06T12:00:03;101307.04;;;18.23;44.57
78409;BME280;67697;50.750;-3.270;2023-08-06T12:02:32;101301.80;;;18.47;43.45
78409;BME280;67697;50.750;-3.270;2023-08-06T12:05:00;101301.15;;;18.76;44.04
78409;BME280;67697;50.750;-3.270;2023-08-06T12:07:19;101310.28;;;18.46;44.15
78409;BME280;67697;50.750;-3.270;2023-08-06T12:09:45;101305.45;;;17.94;45.46
78409;BME280;67697;50.750;-3.270;2023-08-06T12:12:10;101306.65;;;18.26;44.78
78409;BME280;67697;50.750;-3.270;2023-08-06T12:14:36;101308.96;;;18.66;44.20
78409;BME280;67697;50.750;-3.270;2023-08-06T12:17:02;101304.85;;;18.53;44.36
78409;BME280;67697;50.750;-3.270;2023-08-06T12:19:27;101307.61;;;17.97;46.10
78409;BME280;67697;50.750;-3.270;2023-08-06T12:21:58;101300.70;;;17.86;47.35
78409;BME280;67697;50.750;-3.270;2023-08-06T12:24:18;101302.38;;;18.18;46.07
78409;BME280;67697;50.750;-3.270;2023-08-06T12:26:44;101304.07;;;17.69;46.04
78409;BME280;67697;50.750;-3.270;2023-08-06T12:29:09;101300.37;;;17.19;47.83
78409;BME280;67697;50.750;-3.270;2023-08-06T12:31:35;101299.46;;;18.50;46.49
78409;BME280;67697;50.750;-3.270;2023-08-06T12:34:00;101304.19;;;18.20;48.20
78409;BME280;67697;50.750;-3.270;2023-08-06T12:36:26;101301.82;;;18.08;46.98